< < Back
Terminal Aerodrome Forecast


Current Version              Previous Versions:   1  2  3  4  5  6  7  8  9  

Terminal Aerodrome Forecast

452
FTUS42 KILM 271724
TAFILM
TAF
KILM 271724Z 2718/2818 31008KT P6SM FEW050=



Latest METAR

211
SAUS70 KWBC 272200 RRJ
MTRILM
METAR KILM 272153Z 32014G19KT 10SM CLR 22/06 A2977 RMK AO2 SLP081
T02170056


USA.gov is the U.S. government's official web portal to all federal, state and local government web resources and services.